Aérodrome :
LOGIN :

S'inscrire | Disclaimer

   EN    FR    IT 

 










Légende :    VFR   VFR Marginal   IFR   IFR Intensif   IFR Très Intensif
Visi : 
Plafond : 
>= 8 km
>= 3000ft
5 à 8 km
1000 à 3000 ft
1500m à 5 km
500 à 1000 ft
800 à 1500m
200 à 500 ft
< 800m
< 200 ft
Symboles :   Orages  Brouillard  Fortes neiges  Fortes précipitations  Vent > 20 kt
SIGMETs :   Divers  Orages  Givrage  Turbulence  Onde Orograph.  Cendres Volcan.






- Altitude de l'aérodrome : 1079 ft


ETIK - Illesheim Air Base

DERNIER METAR :
  • 200356Z AUTO 00000KT 9999 OVC055 00/00 A3081 RMK AO2 SLP453 T10021002

METARs EXPIRÉS :
  • 200256Z AUTO 25003KT 9999 OVC050 00/00 A3080 RMK AO2 SLP449 T10051005 50004 $
  • 200156Z AUTO 00000KT 9999 OVC050 00/00 A3080 RMK AO2 SLP449 T10021002 $

TAF TAF ETIK
Valide du 19 à 23h jusqu'au 21 à 05h UTC


192301Z 1923/2105 35006KT 9999 BKN020 620204 QNH3076INS
BECMG 2004/2005 02006KT 8000 BR BKN010 620104 QNH3080INS
TEMPO 2005/2009 BKN005
BECMG 2009/2010 06006KT 9999 NSW BKN020 620204 QNH3086INS
BECMG 2015/2016 06009KT 9999 SCT030 QNH3084INS TX03/2013Z TNM02/2005Z



MET'MAP, la Météo Aéronautique d'un coup d'oeil ! - Copyright ORBIFLY Décembre 2007 - Disclaimer

ORBIFLY MET'MAP TEAM :

Programmation & Développement : Alexandra Zaïnal
Sur une idée originale de : Baudouin d'Aumeries
Assistance à la programmation : Marc-Olivier Méhu
Soutien technique & logistique : Manuel Goepfert

Contact : metmap@orbifly.com




SOURCES & CREDITS :

   NOAA